sensor_id;sensor_type;location;lat;lon;timestamp;pressure;altitude;pressure_sealevel;temperature;humidity
33075;BME280;19433;51.292;6.868;2022-07-29T00:01:21;100370.91;;;18.70;52.16
33075;BME280;19433;51.292;6.868;2022-07-29T00:03:47;100363.94;;;18.73;52.78
33075;BME280;19433;51.292;6.868;2022-07-29T00:06:14;100364.53;;;18.75;52.73
33075;BME280;19433;51.292;6.868;2022-07-29T00:08:39;100350.56;;;18.58;53.48
33075;BME280;19433;51.292;6.868;2022-07-29T00:11:04;100353.03;;;18.54;53.11
33075;BME280;19433;51.292;6.868;2022-07-29T00:13:30;100356.19;;;18.58;53.71
33075;BME280;19433;51.292;6.868;2022-07-29T00:15:55;100356.16;;;18.75;52.33
33075;BME280;19433;51.292;6.868;2022-07-29T00:18:20;100345.50;;;18.55;53.14
33075;BME280;19433;51.292;6.868;2022-07-29T00:20:46;100354.34;;;18.64;52.56
33075;BME280;19433;51.292;6.868;2022-07-29T00:23:11;100347.13;;;18.51;54.10
33075;BME280;19433;51.292;6.868;2022-07-29T00:25:36;100333.47;;;18.54;54.23
33075;BME280;19433;51.292;6.868;2022-07-29T00:28:02;100343.22;;;18.52;54.93
33075;BME280;19433;51.292;6.868;2022-07-29T00:30:27;100338.78;;;18.56;54.18
33075;BME280;19433;51.292;6.868;2022-07-29T00:32:52;100330.53;;;18.44;53.56
33075;BME280;19433;51.292;6.868;2022-07-29T00:35:17;100327.59;;;18.56;53.71
33075;BME280;19433;51.292;6.868;2022-07-29T00:38:01;100324.22;;;18.54;52.94
33075;BME280;19433;51.292;6.868;2022-07-29T00:40:27;100318.97;;;18.57;53.96
33075;BME280;19433;51.292;6.868;2022-07-29T00:42:53;100321.09;;;18.50;53.60
33075;BME280;19433;51.292;6.868;2022-07-29T00:45:18;100306.59;;;18.53;54.04
33075;BME280;19433;51.292;6.868;2022-07-29T00:47:44;100301.00;;;18.53;53.18
33075;BME280;19433;51.292;6.868;2022-07-29T00:50:10;100304.03;;;18.52;53.13
33075;BME280;19433;51.292;6.868;2022-07-29T00:52:38;100293.53;;;18.59;53.44
33075;BME280;19433;51.292;6.868;2022-07-29T00:55:05;100285.44;;;18.41;53.82
33075;BME280;19433;51.292;6.868;2022-07-29T00:57:30;100289.00;;;18.36;53.52
33075;BME280;19433;51.292;6.868;2022-07-29T00:59:56;100276.69;;;18.32;54.40
33075;BME280;19433;51.292;6.868;2022-07-29T01:02:21;100273.59;;;18.34;53.93
33075;BME280;19433;51.292;6.868;2022-07-29T01:04:47;100272.44;;;18.30;54.75
33075;BME280;19433;51.292;6.868;2022-07-29T01:07:13;100269.06;;;18.27;54.72
33075;BME280;19433;51.292;6.868;2022-07-29T01:09:39;100280.59;;;18.31;54.45
33075;BME280;19433;51.292;6.868;2022-07-29T01:12:06;100272.22;;;18.36;54.51
33075;BME280;19433;51.292;6.868;2022-07-29T01:14:32;100273.88;;;18.32;54.55
33075;BME280;19433;51.292;6.868;2022-07-29T01:17:02;100270.16;;;18.26;55.00
33075;BME280;19433;51.292;6.868;2022-07-29T01:28:17;100260.84;;;18.21;55.54
33075;BME280;19433;51.292;6.868;2022-07-29T01:30:46;100253.66;;;18.25;55.33
33075;BME280;19433;51.292;6.868;2022-07-29T01:33:15;100259.16;;;18.20;55.64
33075;BME280;19433;51.292;6.868;2022-07-29T01:36:07;100263.72;;;18.26;54.85
33075;BME280;19433;51.292;6.868;2022-07-29T01:38:37;100265.69;;;18.25;55.16
33075;BME280;19433;51.292;6.868;2022-07-29T01:41:09;100276.47;;;18.17;55.42
33075;BME280;19433;51.292;6.868;2022-07-29T01:43:53;100268.78;;;18.07;56.97
33075;BME280;19433;51.292;6.868;2022-07-29T01:46:33;100265.31;;;18.17;55.97
33075;BME280;19433;51.292;6.868;2022-07-29T01:49:06;100274.19;;;18.14;57.33
33075;BME280;19433;51.292;6.868;2022-07-29T01:51:58;100263.72;;;18.26;55.99
33075;BME280;19433;51.292;6.868;2022-07-29T01:54:30;100266.13;;;18.39;56.05
33075;BME280;19433;51.292;6.868;2022-07-29T01:56:58;100263.59;;;18.16;57.58
33075;BME280;19433;51.292;6.868;2022-07-29T01:59:25;100270.09;;;18.21;57.14
33075;BME280;19433;51.292;6.868;2022-07-29T02:01:53;100267.88;;;18.23;58.05
33075;BME280;19433;51.292;6.868;2022-07-29T02:04:20;100267.50;;;18.15;57.90
33075;BME280;19433;51.292;6.868;2022-07-29T02:06:49;100263.53;;;18.11;58.11
33075;BME280;19433;51.292;6.868;2022-07-29T02:09:17;100265.81;;;18.14;58.01
33075;BME280;19433;51.292;6.868;2022-07-29T02:11:48;100262.84;;;18.04;59.22
33075;BME280;19433;51.292;6.868;2022-07-29T02:14:15;100263.06;;;17.97;59.31
33075;BME280;19433;51.292;6.868;2022-07-29T02:16:43;100264.09;;;17.91;59.79
33075;BME280;19433;51.292;6.868;2022-07-29T02:19:11;100257.06;;;17.88;59.96
33075;BME280;19433;51.292;6.868;2022-07-29T02:21:38;100262.28;;;18.02;59.47
33075;BME280;19433;51.292;6.868;2022-07-29T02:24:06;100257.81;;;18.01;59.09
33075;BME280;19433;51.292;6.868;2022-07-29T02:26:33;100249.22;;;18.07;57.97
33075;BME280;19433;51.292;6.868;2022-07-29T02:28:59;100257.28;;;18.25;57.37
33075;BME280;19433;51.292;6.868;2022-07-29T02:31:32;100253.25;;;17.95;59.96
33075;BME280;19433;51.292;6.868;2022-07-29T02:34:00;100279.84;;;17.97;59.82
33075;BME280;19433;51.292;6.868;2022-07-29T02:36:28;100295.31;;;18.05;57.76
33075;BME280;19433;51.292;6.868;2022-07-29T02:38:56;100307.75;;;18.14;57.03
33075;BME280;19433;51.292;6.868;2022-07-29T02:44:13;100309.19;;;18.16;57.27
33075;BME280;19433;51.292;6.868;2022-07-29T02:46:49;100309.97;;;18.12;57.99
33075;BME280;19433;51.292;6.868;2022-07-29T02:49:37;100314.84;;;18.21;56.79
33075;BME280;19433;51.292;6.868;2022-07-29T02:52:37;100308.59;;;18.14;57.25
33075;BME280;19433;51.292;6.868;2022-07-29T02:55:16;100306.13;;;18.18;57.25
33075;BME280;19433;51.292;6.868;2022-07-29T02:57:46;100313.00;;;18.10;57.85
33075;BME280;19433;51.292;6.868;2022-07-29T03:00:13;100295.03;;;18.06;57.93
33075;BME280;19433;51.292;6.868;2022-07-29T03:02:45;100303.19;;;18.08;57.40
33075;BME280;19433;51.292;6.868;2022-07-29T03:05:17;100306.81;;;18.08;57.88
33075;BME280;19433;51.292;6.868;2022-07-29T03:07:47;100304.50;;;17.83;57.43
33075;BME280;19433;51.292;6.868;2022-07-29T03:10:14;100298.25;;;17.76;58.18
33075;BME280;19433;51.292;6.868;2022-07-29T03:12:41;100306.72;;;17.81;58.09
33075;BME280;19433;51.292;6.868;2022-07-29T03:15:07;100324.31;;;17.82;58.72
33075;BME280;19433;51.292;6.868;2022-07-29T03:17:33;100315.25;;;17.75;59.60
33075;BME280;19433;51.292;6.868;2022-07-29T03:19:59;100320.44;;;17.66;58.38
33075;BME280;19433;51.292;6.868;2022-07-29T03:22:25;100322.63;;;17.64;58.98
33075;BME280;19433;51.292;6.868;2022-07-29T03:24:50;100327.78;;;17.72;58.18
33075;BME280;19433;51.292;6.868;2022-07-29T03:27:16;100332.22;;;17.68;59.40
33075;BME280;19433;51.292;6.868;2022-07-29T03:29:42;100335.84;;;17.69;59.30
33075;BME280;19433;51.292;6.868;2022-07-29T03:32:07;100360.56;;;17.93;58.50
33075;BME280;19433;51.292;6.868;2022-07-29T03:34:33;100370.47;;;17.84;58.23
33075;BME280;19433;51.292;6.868;2022-07-29T03:36:58;100352.63;;;17.85;57.47
33075;BME280;19433;51.292;6.868;2022-07-29T03:39:26;100370.53;;;17.89;58.07
33075;BME280;19433;51.292;6.868;2022-07-29T03:41:55;100378.34;;;17.87;58.23
33075;BME280;19433;51.292;6.868;2022-07-29T03:44:21;100379.28;;;17.76;57.83
33075;BME280;19433;51.292;6.868;2022-07-29T03:46:48;100376.06;;;17.84;57.88
33075;BME280;19433;51.292;6.868;2022-07-29T03:49:16;100375.63;;;17.76;58.07
33075;BME280;19433;51.292;6.868;2022-07-29T03:51:45;100383.75;;;17.77;58.43
33075;BME280;19433;51.292;6.868;2022-07-29T03:54:11;100379.13;;;17.66;59.75
33075;BME280;19433;51.292;6.868;2022-07-29T03:56:42;100375.56;;;17.71;61.53
33075;BME280;19433;51.292;6.868;2022-07-29T03:59:07;100372.38;;;17.50;68.17
33075;BME280;19433;51.292;6.868;2022-07-29T04:01:34;100375.84;;;17.41;67.60
33075;BME280;19433;51.292;6.868;2022-07-29T04:04:01;100370.31;;;17.29;67.97
33075;BME280;19433;51.292;6.868;2022-07-29T04:06:27;100376.31;;;17.21;71.97
33075;BME280;19433;51.292;6.868;2022-07-29T04:08:52;100374.56;;;17.03;69.05
33075;BME280;19433;51.292;6.868;2022-07-29T04:11:17;100355.38;;;17.07;69.57
33075;BME280;19433;51.292;6.868;2022-07-29T04:13:43;100362.97;;;16.95;69.47
33075;BME280;19433;51.292;6.868;2022-07-29T04:16:09;100368.31;;;16.84;71.49
33075;BME280;19433;51.292;6.868;2022-07-29T04:18:34;100357.38;;;16.95;70.63
33075;BME280;19433;51.292;6.868;2022-07-29T04:21:00;100337.81;;;16.78;70.60
33075;BME280;19433;51.292;6.868;2022-07-29T04:23:27;100333.81;;;16.74;71.42
33075;BME280;19433;51.292;6.868;2022-07-29T04:25:52;100319.88;;;16.62;70.53
33075;BME280;19433;51.292;6.868;2022-07-29T04:28:17;100319.44;;;16.42;71.92
33075;BME280;19433;51.292;6.868;2022-07-29T04:30:44;100310.59;;;16.45;72.89
33075;BME280;19433;51.292;6.868;2022-07-29T04:33:09;100308.78;;;16.39;73.32
33075;BME280;19433;51.292;6.868;2022-07-29T04:35:38;100306.16;;;16.32;72.13
33075;BME280;19433;51.292;6.868;2022-07-29T04:38:04;100310.03;;;16.19;72.17
33075;BME280;19433;51.292;6.868;2022-07-29T04:40:31;100337.41;;;16.23;72.46
33075;BME280;19433;51.292;6.868;2022-07-29T04:42:58;100343.81;;;16.35;75.22
33075;BME280;19433;51.292;6.868;2022-07-29T04:45:23;100348.22;;;16.07;80.69
33075;BME280;19433;51.292;6.868;2022-07-29T04:47:49;100355.50;;;15.97;82.52
33075;BME280;19433;51.292;6.868;2022-07-29T04:50:14;100345.47;;;15.72;83.78
33075;BME280;19433;51.292;6.868;2022-07-29T04:52:40;100358.41;;;15.67;85.65
33075;BME280;19433;51.292;6.868;2022-07-29T04:55:05;100367.59;;;15.56;97.71
33075;BME280;19433;51.292;6.868;2022-07-29T04:57:31;100357.97;;;15.40;100.00
33075;BME280;19433;51.292;6.868;2022-07-29T04:59:56;100356.13;;;15.45;99.25
33075;BME280;19433;51.292;6.868;2022-07-29T05:02:22;100342.44;;;15.32;100.00
33075;BME280;19433;51.292;6.868;2022-07-29T05:04:47;100343.19;;;14.98;100.00
33075;BME280;19433;51.292;6.868;2022-07-29T05:07:13;100337.69;;;14.80;100.00
33075;BME280;19433;51.292;6.868;2022-07-29T05:09:39;100325.41;;;14.69;100.00
33075;BME280;19433;51.292;6.868;2022-07-29T05:12:04;100306.28;;;14.24;100.00
33075;BME280;19433;51.292;6.868;2022-07-29T05:14:30;100312.41;;;14.15;100.00
33075;BME280;19433;51.292;6.868;2022-07-29T05:16:55;100300.88;;;13.93;100.00
33075;BME280;19433;51.292;6.868;2022-07-29T05:19:22;100303.09;;;13.66;100.00
33075;BME280;19433;51.292;6.868;2022-07-29T05:21:48;100299.69;;;13.64;100.00
33075;BME280;19433;51.292;6.868;2022-07-29T05:24:13;100303.97;;;13.66;100.00
33075;BME280;19433;51.292;6.868;2022-07-29T05:26:39;100308.44;;;13.67;100.00
33075;BME280;19433;51.292;6.868;2022-07-29T05:29:04;100315.47;;;13.70;100.00
33075;BME280;19433;51.292;6.868;2022-07-29T05:31:30;100316.53;;;13.69;100.00
33075;BME280;19433;51.292;6.868;2022-07-29T05:33:55;100324.41;;;13.72;100.00
33075;BME280;19433;51.292;6.868;2022-07-29T05:36:21;100323.38;;;13.66;100.00
33075;BME280;19433;51.292;6.868;2022-07-29T05:38:46;100319.84;;;13.78;100.00
33075;BME280;19433;51.292;6.868;2022-07-29T05:41:11;100317.88;;;13.85;100.00
33075;BME280;19433;51.292;6.868;2022-07-29T05:43:37;100323.91;;;14.00;100.00
33075;BME280;19433;51.292;6.868;2022-07-29T05:46:02;100323.44;;;14.03;100.00
33075;BME280;19433;51.292;6.868;2022-07-29T05:48:27;100321.88;;;14.07;100.00
33075;BME280;19433;51.292;6.868;2022-07-29T05:50:53;100332.63;;;14.03;100.00
33075;BME280;19433;51.292;6.868;2022-07-29T05:53:19;100332.38;;;14.23;100.00
33075;BME280;19433;51.292;6.868;2022-07-29T05:55:44;100324.03;;;14.23;100.00
33075;BME280;19433;51.292;6.868;2022-07-29T05:58:10;100328.69;;;14.29;100.00
33075;BME280;19433;51.292;6.868;2022-07-29T06:00:35;100324.03;;;14.23;100.00
33075;BME280;19433;51.292;6.868;2022-07-29T06:03:00;100324.06;;;14.41;100.00
33075;BME280;19433;51.292;6.868;2022-07-29T06:05:26;100326.78;;;14.48;100.00
33075;BME280;19433;51.292;6.868;2022-07-29T06:07:51;100336.19;;;14.65;100.00
33075;BME280;19433;51.292;6.868;2022-07-29T06:10:17;100329.53;;;14.66;100.00
33075;BME280;19433;51.292;6.868;2022-07-29T06:12:42;100335.44;;;14.70;100.00
33075;BME280;19433;51.292;6.868;2022-07-29T06:15:08;100335.59;;;14.75;100.00
33075;BME280;19433;51.292;6.868;2022-07-29T06:17:33;100337.69;;;14.80;100.00
33075;BME280;19433;51.292;6.868;2022-07-29T06:19:58;100351.22;;;14.76;100.00
33075;BME280;19433;51.292;6.868;2022-07-29T06:22:24;100346.69;;;14.93;100.00
33075;BME280;19433;51.292;6.868;2022-07-29T06:24:49;100345.97;;;14.98;100.00
33075;BME280;19433;51.292;6.868;2022-07-29T06:27:15;100360.56;;;15.11;100.00
33075;BME280;19433;51.292;6.868;2022-07-29T06:29:41;100357.97;;;15.40;100.00
33075;BME280;19433;51.292;6.868;2022-07-29T06:32:07;100362.31;;;15.36;100.00
33075;BME280;19433;51.292;6.868;2022-07-29T06:34:34;100363.78;;;15.38;100.00
33075;BME280;19433;51.292;6.868;2022-07-29T06:36:59;100360.16;;;15.49;100.00
33075;BME280;19433;51.292;6.868;2022-07-29T06:39:24;100370.97;;;15.28;100.00
33075;BME280;19433;51.292;6.868;2022-07-29T06:41:50;100364.31;;;15.17;100.00
33075;BME280;19433;51.292;6.868;2022-07-29T06:44:16;100374.56;;;15.05;100.00
33075;BME280;19433;51.292;6.868;2022-07-29T06:46:41;100377.19;;;15.00;100.00
33075;BME280;19433;51.292;6.868;2022-07-29T06:49:07;100382.84;;;14.93;100.00
33075;BME280;19433;51.292;6.868;2022-07-29T06:51:33;100381.91;;;14.99;100.00
33075;BME280;19433;51.292;6.868;2022-07-29T06:53:59;100385.09;;;15.14;100.00
33075;BME280;19433;51.292;6.868;2022-07-29T06:56:25;100382.56;;;15.13;100.00
33075;BME280;19433;51.292;6.868;2022-07-29T06:58:51;100383.38;;;15.43;100.00
33075;BME280;19433;51.292;6.868;2022-07-29T07:01:16;100383.38;;;15.43;100.00
33075;BME280;19433;51.292;6.868;2022-07-29T07:03:41;100383.88;;;15.40;100.00
33075;BME280;19433;51.292;6.868;2022-07-29T07:06:07;100390.53;;;15.51;100.00
33075;BME280;19433;51.292;6.868;2022-07-29T07:08:33;100384.56;;;15.89;100.00
33075;BME280;19433;51.292;6.868;2022-07-29T07:10:58;100385.44;;;16.01;100.00
33075;BME280;19433;51.292;6.868;2022-07-29T07:13:23;100404.94;;;16.13;100.00
33075;BME280;19433;51.292;6.868;2022-07-29T07:15:49;100397.53;;;16.07;100.00
33075;BME280;19433;51.292;6.868;2022-07-29T07:18:16;100404.06;;;16.24;100.00
33075;BME280;19433;51.292;6.868;2022-07-29T07:20:42;100406.38;;;16.27;100.00
33075;BME280;19433;51.292;6.868;2022-07-29T07:23:07;100415.81;;;16.49;100.00
33075;BME280;19433;51.292;6.868;2022-07-29T07:25:33;100418.59;;;16.61;100.00
33075;BME280;19433;51.292;6.868;2022-07-29T07:27:58;100416.91;;;16.60;100.00
33075;BME280;19433;51.292;6.868;2022-07-29T07:30:24;100425.66;;;16.64;100.00
33075;BME280;19433;51.292;6.868;2022-07-29T07:32:49;100418.13;;;16.64;100.00
33075;BME280;19433;51.292;6.868;2022-07-29T07:35:15;100418.59;;;16.61;100.00
33075;BME280;19433;51.292;6.868;2022-07-29T07:37:40;100410.84;;;16.75;100.00
33075;BME280;19433;51.292;6.868;2022-07-29T07:40:06;100421.38;;;16.73;100.00
33075;BME280;19433;51.292;6.868;2022-07-29T07:42:32;100420.53;;;16.61;100.00
33075;BME280;19433;51.292;6.868;2022-07-29T07:44:58;100419.81;;;16.42;100.00
33075;BME280;19433;51.292;6.868;2022-07-29T07:47:23;100415.94;;;16.43;100.00
33075;BME280;19433;51.292;6.868;2022-07-29T07:49:49;100405.88;;;16.42;100.00
33075;BME280;19433;51.292;6.868;2022-07-29T07:52:16;100417.63;;;16.56;100.00
33075;BME280;19433;51.292;6.868;2022-07-29T07:54:42;100417.50;;;16.62;100.00
33075;BME280;19433;51.292;6.868;2022-07-29T07:57:10;100414.00;;;16.43;100.00
33075;BME280;19433;51.292;6.868;2022-07-29T07:59:35;100419.94;;;16.24;100.00
33075;BME280;19433;51.292;6.868;2022-07-29T08:02:00;100413.78;;;16.10;100.00
33075;BME280;19433;51.292;6.868;2022-07-29T08:04:26;100409.28;;;16.09;100.00
33075;BME280;19433;51.292;6.868;2022-07-29T08:06:52;100395.47;;;16.14;100.00
33075;BME280;19433;51.292;6.868;2022-07-29T08:09:21;100404.19;;;16.29;100.00
33075;BME280;19433;51.292;6.868;2022-07-29T08:11:47;100417.78;;;16.26;100.00
33075;BME280;19433;51.292;6.868;2022-07-29T08:14:12;100418.50;;;16.09;100.00
33075;BME280;19433;51.292;6.868;2022-07-29T08:16:39;100418.38;;;16.04;100.00
33075;BME280;19433;51.292;6.868;2022-07-29T08:19:05;100420.44;;;16.09;100.00
33075;BME280;19433;51.292;6.868;2022-07-29T08:21:30;100412.06;;;16.09;100.00
33075;BME280;19433;51.292;6.868;2022-07-29T08:23:55;100426.63;;;16.23;100.00
33075;BME280;19433;51.292;6.868;2022-07-29T08:26:41;100425.06;;;16.15;100.00
33075;BME280;19433;51.292;6.868;2022-07-29T08:29:07;100420.34;;;16.15;100.00
33075;BME280;19433;51.292;6.868;2022-07-29T08:31:32;100414.88;;;16.09;100.00
33075;BME280;19433;51.292;6.868;2022-07-29T08:33:58;100413.78;;;16.10;100.00
33075;BME280;19433;51.292;6.868;2022-07-29T08:36:25;100423.97;;;16.16;100.00
33075;BME280;19433;51.292;6.868;2022-07-29T08:38:50;100416.69;;;16.15;100.00
33075;BME280;19433;51.292;6.868;2022-07-29T08:41:17;100413.28;;;16.36;100.00
33075;BME280;19433;51.292;6.868;2022-07-29T08:43:44;100402.03;;;15.96;100.00
33075;BME280;19433;51.292;6.868;2022-07-29T08:46:09;100402.63;;;15.87;100.00
33075;BME280;19433;51.292;6.868;2022-07-29T08:48:36;100402.34;;;15.76;100.00
33075;BME280;19433;51.292;6.868;2022-07-29T08:51:02;100403.94;;;15.72;100.00
33075;BME280;19433;51.292;6.868;2022-07-29T08:53:28;100398.50;;;15.89;100.00
33075;BME280;19433;51.292;6.868;2022-07-29T08:55:55;100399.94;;;15.80;100.00
33075;BME280;19433;51.292;6.868;2022-07-29T08:58:21;100399.72;;;15.81;100.00
33075;BME280;19433;51.292;6.868;2022-07-29T09:00:51;100390.50;;;15.81;100.00
33075;BME280;19433;51.292;6.868;2022-07-29T09:03:23;100376.34;;;15.82;100.00
33075;BME280;19433;51.292;6.868;2022-07-29T09:05:48;100382.00;;;15.76;100.00
33075;BME280;19433;51.292;6.868;2022-07-29T09:08:15;100371.56;;;15.60;100.00
33075;BME280;19433;51.292;6.868;2022-07-29T09:10:41;100369.06;;;15.58;100.00
33075;BME280;19433;51.292;6.868;2022-07-29T09:13:06;100380.44;;;15.57;100.00
33075;BME280;19433;51.292;6.868;2022-07-29T09:15:32;100383.56;;;15.60;100.00
33075;BME280;19433;51.292;6.868;2022-07-29T09:17:57;100378.25;;;15.70;100.00
33075;BME280;19433;51.292;6.868;2022-07-29T09:20:24;100367.47;;;15.74;100.00
33075;BME280;19433;51.292;6.868;2022-07-29T09:22:51;100375.72;;;15.80;100.00
33075;BME280;19433;51.292;6.868;2022-07-29T09:25:38;100378.97;;;15.89;100.00
33075;BME280;19433;51.292;6.868;2022-07-29T09:28:10;100382.50;;;16.19;100.00
33075;BME280;19433;51.292;6.868;2022-07-29T09:30:41;100391.09;;;16.41;100.00
33075;BME280;19433;51.292;6.868;2022-07-29T09:33:14;100400.16;;;16.60;100.00
33075;BME280;19433;51.292;6.868;2022-07-29T09:35:40;100392.88;;;16.71;100.00
33075;BME280;19433;51.292;6.868;2022-07-29T09:38:12;100398.03;;;16.91;100.00
33075;BME280;19433;51.292;6.868;2022-07-29T09:40:38;100405.34;;;17.20;100.00
33075;BME280;19433;51.292;6.868;2022-07-29T09:43:11;100391.56;;;17.30;100.00
33075;BME280;19433;51.292;6.868;2022-07-29T09:45:36;100387.19;;;17.51;100.00
33075;BME280;19433;51.292;6.868;2022-07-29T09:48:16;100401.13;;;17.79;100.00
33075;BME280;19433;51.292;6.868;2022-07-29T09:50:43;100404.78;;;17.97;100.00
33075;BME280;19433;51.292;6.868;2022-07-29T09:53:10;100397.72;;;18.27;100.00
33075;BME280;19433;51.292;6.868;2022-07-29T09:55:56;100400.94;;;18.19;100.00
33075;BME280;19433;51.292;6.868;2022-07-29T09:58:21;100407.31;;;17.98;100.00
33075;BME280;19433;51.292;6.868;2022-07-29T10:00:48;100417.16;;;18.01;99.13
33075;BME280;19433;51.292;6.868;2022-07-29T10:03:15;100407.81;;;17.78;100.00
33075;BME280;19433;51.292;6.868;2022-07-29T10:05:41;100412.41;;;17.68;99.73
33075;BME280;19433;51.292;6.868;2022-07-29T10:08:08;100408.31;;;17.75;100.00
33075;BME280;19433;51.292;6.868;2022-07-29T10:10:36;100410.50;;;17.73;100.00
33075;BME280;19433;51.292;6.868;2022-07-29T10:13:22;100404.44;;;17.76;100.00
33075;BME280;19433;51.292;6.868;2022-07-29T10:15:47;100412.06;;;17.98;100.00
33075;BME280;19433;51.292;6.868;2022-07-29T10:18:16;100404.34;;;18.05;99.34
33075;BME280;19433;51.292;6.868;2022-07-29T10:20:44;100409.00;;;18.16;100.00
33075;BME280;19433;51.292;6.868;2022-07-29T10:23:10;100414.00;;;18.31;100.00
33075;BME280;19433;51.292;6.868;2022-07-29T10:25:35;100411.16;;;18.47;100.00
33075;BME280;19433;51.292;6.868;2022-07-29T10:28:00;100414.19;;;18.63;100.00
33075;BME280;19433;51.292;6.868;2022-07-29T10:30:26;100411.13;;;18.64;100.00
33075;BME280;19433;51.292;6.868;2022-07-29T10:46:23;100430.00;;;19.17;95.41
33075;BME280;19433;51.292;6.868;2022-07-29T10:57:29;100433.28;;;19.58;94.42
33075;BME280;19433;51.292;6.868;2022-07-29T11:05:02;100432.13;;;20.18;90.45
33075;BME280;19433;51.292;6.868;2022-07-29T11:07:28;100435.97;;;20.39;88.24
33075;BME280;19433;51.292;6.868;2022-07-29T11:15:05;100445.25;;;21.49;83.46
33075;BME280;19433;51.292;6.868;2022-07-29T11:20:34;100451.22;;;22.59;77.32
33075;BME280;19433;51.292;6.868;2022-07-29T11:23:00;100446.34;;;23.00;75.65
33075;BME280;19433;51.292;6.868;2022-07-29T11:25:26;100444.16;;;23.46;74.99
33075;BME280;19433;51.292;6.868;2022-07-29T11:27:53;100444.94;;;23.62;67.75
33075;BME280;19433;51.292;6.868;2022-07-29T11:30:19;100444.47;;;23.89;70.14
33075;BME280;19433;51.292;6.868;2022-07-29T11:32:45;100445.00;;;24.30;69.32
33075;BME280;19433;51.292;6.868;2022-07-29T11:35:22;100443.28;;;25.15;63.02
33075;BME280;19433;51.292;6.868;2022-07-29T11:38:27;100448.75;;;25.49;65.63
33075;BME280;19433;51.292;6.868;2022-07-29T11:41:18;100457.50;;;26.09;57.71
33075;BME280;19433;51.292;6.868;2022-07-29T11:43:56;100458.84;;;25.55;56.20
33075;BME280;19433;51.292;6.868;2022-07-29T11:46:48;100456.38;;;25.73;59.78
33075;BME280;19433;51.292;6.868;2022-07-29T11:49:22;100450.63;;;25.97;56.86
33075;BME280;19433;51.292;6.868;2022-07-29T11:51:52;100450.41;;;26.44;56.93
33075;BME280;19433;51.292;6.868;2022-07-29T11:54:24;100455.03;;;26.21;53.22
33075;BME280;19433;51.292;6.868;2022-07-29T11:56:51;100456.09;;;26.25;56.74
33075;BME280;19433;51.292;6.868;2022-07-29T11:59:17;100446.88;;;25.82;51.27
33075;BME280;19433;51.292;6.868;2022-07-29T12:01:57;100447.41;;;25.84;53.37
33075;BME280;19433;51.292;6.868;2022-07-29T12:04:23;100455.22;;;26.11;50.88
33075;BME280;19433;51.292;6.868;2022-07-29T12:06:53;100451.75;;;26.33;52.19
33075;BME280;19433;51.292;6.868;2022-07-29T12:09:20;100452.38;;;26.11;51.18
33075;BME280;19433;51.292;6.868;2022-07-29T12:11:46;100457.16;;;25.78;49.90
33075;BME280;19433;51.292;6.868;2022-07-29T12:14:33;100445.91;;;25.31;54.15
33075;BME280;19433;51.292;6.868;2022-07-29T12:16:59;100449.59;;;25.50;52.70
33075;BME280;19433;51.292;6.868;2022-07-29T12:19:26;100438.72;;;25.38;50.87
33075;BME280;19433;51.292;6.868;2022-07-29T12:21:54;100444.78;;;25.50;50.97
33075;BME280;19433;51.292;6.868;2022-07-29T12:24:20;100450.25;;;25.84;53.04
33075;BME280;19433;51.292;6.868;2022-07-29T12:26:57;100452.97;;;26.27;51.87
33075;BME280;19433;51.292;6.868;2022-07-29T12:29:23;100444.69;;;26.77;51.49
33075;BME280;19433;51.292;6.868;2022-07-29T12:31:53;100447.13;;;27.52;50.23
33075;BME280;19433;51.292;6.868;2022-07-29T12:34:20;100452.66;;;27.35;50.18
33075;BME280;19433;51.292;6.868;2022-07-29T12:36:47;100456.31;;;26.94;46.76
33075;BME280;19433;51.292;6.868;2022-07-29T12:39:15;100459.66;;;26.50;50.17
33075;BME280;19433;51.292;6.868;2022-07-29T12:41:41;100454.56;;;26.14;49.19
33075;BME280;19433;51.292;6.868;2022-07-29T12:44:06;100452.19;;;26.40;49.77
33075;BME280;19433;51.292;6.868;2022-07-29T12:46:32;100450.75;;;26.24;45.85
33075;BME280;19433;51.292;6.868;2022-07-29T12:48:57;100444.31;;;26.18;48.25
33075;BME280;19433;51.292;6.868;2022-07-29T12:51:36;100448.78;;;26.06;48.88
33075;BME280;19433;51.292;6.868;2022-07-29T12:54:13;100447.53;;;26.31;49.63
33075;BME280;19433;51.292;6.868;2022-07-29T12:56:40;100446.38;;;26.32;48.08
33075;BME280;19433;51.292;6.868;2022-07-29T12:59:17;100444.69;;;26.31;51.85
33075;BME280;19433;51.292;6.868;2022-07-29T13:01:44;100442.00;;;26.39;50.33
33075;BME280;19433;51.292;6.868;2022-07-29T13:04:10;100440.72;;;26.78;48.96
33075;BME280;19433;51.292;6.868;2022-07-29T13:06:43;100446.84;;;27.40;47.80
33075;BME280;19433;51.292;6.868;2022-07-29T13:09:13;100447.19;;;27.88;47.39
33075;BME280;19433;51.292;6.868;2022-07-29T13:11:44;100451.66;;;28.02;47.08
33075;BME280;19433;51.292;6.868;2022-07-29T13:14:11;100455.72;;;27.88;46.42
33075;BME280;19433;51.292;6.868;2022-07-29T13:17:10;100452.59;;;28.34;43.71
33075;BME280;19433;51.292;6.868;2022-07-29T13:19:47;100449.63;;;28.39;43.37
33075;BME280;19433;51.292;6.868;2022-07-29T13:22:18;100446.28;;;28.01;44.14
33075;BME280;19433;51.292;6.868;2022-07-29T13:24:52;100444.75;;;27.45;42.90
33075;BME280;19433;51.292;6.868;2022-07-29T13:27:22;100443.28;;;27.34;45.53
33075;BME280;19433;51.292;6.868;2022-07-29T13:29:48;100447.59;;;27.59;46.70
33075;BME280;19433;51.292;6.868;2022-07-29T13:32:16;100442.84;;;27.27;47.32
33075;BME280;19433;51.292;6.868;2022-07-29T13:34:42;100436.03;;;27.28;47.68
33075;BME280;19433;51.292;6.868;2022-07-29T13:37:07;100445.16;;;27.39;44.34